Time;durP1;ratioP1;P1;durP2;ratioP2;P2;SDS_P1;SDS_P2;PMS_P1;PMS_P2;Temp;Humidity;BMP_temperature;BMP_pressure;BME280_temperature;BME280_humidity;BME280_pressure;Samples;Min_cycle;Max_cycle;Signal;HPM_P1;HPM_P2
2023/09/17 00:01:32;;;;;;;34.90;27.80;;;21.70;99.90;;;;;;5070444;28;20212;-84
2023/09/17 00:03:58;;;;;;;33.17;29.57;;;21.60;99.90;;;;;;5070805;28;20212;-82
2023/09/17 00:06:24;;;;;;;40.80;30.10;;;21.40;1.00;;;;;;5070155;28;20181;-83
2023/09/17 00:08:49;;;;;;;36.47;29.60;;;21.40;1.00;;;;;;5070848;28;20442;-83
2023/09/17 00:11:15;;;;;;;40.67;30.90;;;21.50;1.00;;;;;;5068365;28;20209;-84
2023/09/17 00:13:41;;;;;;;41.40;31.73;;;21.50;1.00;;;;;;5066905;28;20262;-83
2023/09/17 00:16:07;;;;;;;39.20;32.90;;;21.40;1.00;;;;;;5072528;28;20264;-83
2023/09/17 00:18:33;;;;;;;40.53;31.87;;;21.40;1.00;;;;;;5070271;28;20514;-83
2023/09/17 00:20:58;;;;;;;51.50;36.53;;;21.30;1.00;;;;;;5067889;28;20228;-83
2023/09/17 00:23:23;;;;;;;46.03;34.93;;;21.30;1.00;;;;;;5068240;28;20189;-83
2023/09/17 00:25:49;;;;;;;44.60;34.03;;;21.30;1.00;;;;;;5064591;28;20210;-83
2023/09/17 00:28:14;;;;;;;45.27;34.37;;;21.20;1.00;;;;;;5068947;28;20220;-83
2023/09/17 00:30:40;;;;;;;40.50;30.73;;;21.10;1.00;;;;;;5071047;28;20215;-83
2023/09/17 00:33:06;;;;;;;46.33;34.13;;;21.10;1.00;;;;;;5069728;28;20216;-83
2023/09/17 00:35:31;;;;;;;43.97;30.80;;;21.00;1.00;;;;;;5067125;28;20192;-84
2023/09/17 00:37:57;;;;;;;45.10;33.83;;;21.00;1.00;;;;;;5067365;28;21085;-83
2023/09/17 00:40:28;;;;;;;43.63;34.10;;;21.00;1.00;;;;;;5069248;28;20192;-84
2023/09/17 00:42:53;;;;;;;39.70;31.20;;;21.00;1.00;;;;;;5069760;28;20700;-85
2023/09/17 00:45:19;;;;;;;42.00;30.57;;;21.00;1.00;;;;;;5068621;28;20484;-81
2023/09/17 00:47:44;;;;;;;44.43;32.33;;;21.00;1.00;;;;;;5066244;28;20181;-81
2023/09/17 00:50:10;;;;;;;41.90;31.70;;;21.00;1.00;;;;;;5069579;28;20188;-79
2023/09/17 00:52:36;;;;;;;39.90;28.27;;;21.00;1.00;;;;;;5070483;28;20313;-81
2023/09/17 00:55:03;;;;;;;42.33;31.90;;;21.00;1.00;;;;;;5069806;28;20703;-83
2023/09/17 00:57:30;;;;;;;41.77;31.40;;;21.00;1.00;;;;;;5071326;28;20904;-81
2023/09/17 00:59:55;;;;;;;35.57;29.07;;;21.00;1.00;;;;;;5069912;28;20462;-81
2023/09/17 01:02:21;;;;;;;36.67;30.40;;;21.00;1.00;;;;;;5065940;28;20499;-81
2023/09/17 01:04:49;;;;;;;36.03;28.75;;;21.00;1.00;;;;;;5071556;28;20185;-81
2023/09/17 01:07:17;;;;;;;38.30;28.23;;;21.10;1.00;;;;;;5066147;28;20217;-81
2023/09/17 01:09:43;;;;;;;34.40;27.67;;;21.20;1.00;;;;;;5066619;28;20436;-81
2023/09/17 01:12:09;;;;;;;31.47;25.70;;;21.20;1.00;;;;;;5068125;28;20841;-81
2023/09/17 01:14:36;;;;;;;32.43;26.40;;;21.20;1.00;;;;;;5075048;28;20738;-81
2023/09/17 01:17:03;;;;;;;40.57;27.00;;;21.30;1.00;;;;;;5070097;28;20471;-82
2023/09/17 01:19:29;;;;;;;34.30;27.63;;;21.30;1.00;;;;;;5069543;28;20522;-83
2023/09/17 01:22:13;;;;;;;39.27;29.57;;;21.30;1.00;;;;;;5072905;28;20463;-83
2023/09/17 01:24:48;;;;;;;41.57;31.67;;;21.20;1.00;;;;;;5065709;28;20431;-81
2023/09/17 01:27:15;;;;;;;40.70;30.80;;;21.10;1.00;;;;;;5066679;28;20462;-82
2023/09/17 01:29:43;;;;;;;40.20;31.57;;;21.00;1.00;;;;;;5071178;28;20488;-81
2023/09/17 01:32:12;;;;;;;40.27;30.27;;;21.00;1.00;;;;;;5081962;28;20452;-81
2023/09/17 01:34:41;;;;;;;42.20;32.40;;;21.00;1.00;;;;;;5072226;28;20443;-82
2023/09/17 01:37:39;;;;;;;42.00;31.70;;;20.90;1.00;;;;;;5073768;28;20452;-83
2023/09/17 01:40:11;;;;;;;42.23;30.53;;;20.80;1.00;;;;;;5059477;28;21134;-81
2023/09/17 01:42:40;;;;;;;32.87;26.70;;;20.80;1.00;;;;;;5069592;28;20432;-81
2023/09/17 01:45:09;;;;;;;37.70;30.23;;;20.80;1.00;;;;;;5071881;28;20434;-81
2023/09/17 01:47:35;;;;;;;36.15;29.30;;;20.80;1.00;;;;;;5072111;28;20427;-81
2023/09/17 01:50:04;;;;;;;37.47;29.53;;;20.80;1.00;;;;;;5072595;28;20657;-81
2023/09/17 01:52:32;;;;;;;43.90;32.77;;;20.80;1.00;;;;;;5070265;28;20455;-82
2023/09/17 01:55:00;;;;;;;38.07;30.17;;;20.70;1.00;;;;;;5065829;28;20932;-79
2023/09/17 01:57:25;;;;;;;40.30;30.37;;;20.80;1.00;;;;;;5068799;28;21011;-81
2023/09/17 01:59:51;;;;;;;38.17;29.23;;;20.80;1.00;;;;;;5073425;28;20535;-82
2023/09/17 02:02:16;;;;;;;40.67;32.03;;;20.80;1.00;;;;;;5071266;28;20209;-83
2023/09/17 02:04:42;;;;;;;41.97;30.60;;;20.80;1.00;;;;;;5071647;28;20177;-81
2023/09/17 02:07:07;;;;;;;45.70;31.70;;;20.80;1.00;;;;;;5074235;28;20235;-81
2023/09/17 02:09:33;;;;;;;39.47;30.70;;;20.80;1.00;;;;;;5070120;28;20177;-82
2023/09/17 02:11:58;;;;;;;43.10;32.60;;;20.80;1.00;;;;;;5068017;28;20233;-78
2023/09/17 02:14:24;;;;;;;44.30;31.20;;;20.70;1.00;;;;;;5068233;28;20200;-81
2023/09/17 02:16:50;;;;;;;42.60;32.53;;;20.70;1.00;;;;;;5073958;28;20275;-81
2023/09/17 02:19:16;;;;;;;45.17;33.20;;;20.70;1.00;;;;;;5073035;28;20674;-83
2023/09/17 02:21:42;;;;;;;45.10;33.80;;;20.70;1.00;;;;;;5070467;28;20486;-82
2023/09/17 02:24:07;;;;;;;41.57;32.43;;;20.70;1.00;;;;;;5071049;28;20205;-84
2023/09/17 02:26:33;;;;;;;43.00;32.30;;;20.70;1.00;;;;;;5071459;28;20854;-83
2023/09/17 02:28:58;;;;;;;51.13;34.67;;;20.60;1.00;;;;;;5073310;28;20201;-80
2023/09/17 02:31:24;;;;;;;46.73;35.53;;;20.60;1.00;;;;;;5071179;28;20219;-83
2023/09/17 02:33:50;;;;;;;53.87;38.33;;;20.50;4.80;;;;;;5072981;28;20696;-83
2023/09/17 02:36:15;;;;;;;49.17;33.47;;;20.50;7.70;;;;;;5076607;28;20462;-81
2023/09/17 02:38:41;;;;;;;45.30;35.83;;;20.50;11.20;;;;;;5075386;28;20185;-83
2023/09/17 02:41:07;;;;;;;53.00;36.53;;;20.40;19.40;;;;;;5073593;28;20675;-82
2023/09/17 02:43:36;;;;;;;48.17;32.90;;;20.40;21.10;;;;;;5070103;28;20227;-83
2023/09/17 02:46:04;;;;;;;51.23;36.03;;;20.40;23.50;;;;;;5073503;28;20474;-83
2023/09/17 02:48:32;;;;;;;49.93;35.70;;;20.40;26.10;;;;;;5072945;28;20431;-82
2023/09/17 02:50:58;;;;;;;50.87;36.43;;;20.30;32.10;;;;;;5070746;28;20454;-82
2023/09/17 02:53:23;;;;;;;52.60;38.07;;;20.30;33.70;;;;;;5072172;28;20470;-82
2023/09/17 02:55:49;;;;;;;52.43;36.37;;;20.30;35.90;;;;;;5061169;28;20439;-82
2023/09/17 02:58:15;;;;;;;50.33;35.50;;;20.30;38.40;;;;;;5071120;28;20209;-83
2023/09/17 03:00:43;;;;;;;52.47;34.90;;;20.30;40.40;;;;;;5071617;28;20266;-82
2023/09/17 03:03:08;;;;;;;54.37;36.23;;;20.30;38.80;;;;;;5068538;28;20440;-82
2023/09/17 03:05:34;;;;;;;46.13;33.77;;;20.30;44.00;;;;;;5071963;28;20613;-82
2023/09/17 03:07:59;;;;;;;52.20;35.47;;;20.30;43.90;;;;;;5072963;28;20186;-83
2023/09/17 03:10:26;;;;;;;49.43;33.20;;;20.30;44.30;;;;;;5071106;28;20193;-82
2023/09/17 03:12:52;;;;;;;48.33;37.07;;;20.30;41.80;;;;;;5061548;28;20205;-82
2023/09/17 03:15:18;;;;;;;58.40;37.73;;;20.30;46.40;;;;;;5068409;28;20465;-81
2023/09/17 03:17:43;;;;;;;60.03;39.53;;;20.20;49.00;;;;;;5077152;28;20474;-82
2023/09/17 03:20:22;;;;;;;60.50;38.23;;;20.20;53.20;;;;;;5065622;28;20476;-83
2023/09/17 03:22:48;;;;;;;65.63;43.40;;;20.20;52.10;;;;;;5063260;28;20280;-80
2023/09/17 03:25:14;;;;;;;60.23;39.77;;;20.20;57.50;;;;;;5071397;28;20432;-82
2023/09/17 03:27:43;;;;;;;57.83;39.33;;;20.10;61.90;;;;;;5070578;28;20484;-82
2023/09/17 03:30:09;;;;;;;68.83;41.97;;;20.10;65.00;;;;;;5069699;28;20431;-85
2023/09/17 03:32:34;;;;;;;62.03;41.90;;;20.10;60.60;;;;;;5065298;28;20428;-84
2023/09/17 03:35:01;;;;;;;54.53;38.73;;;20.10;67.20;;;;;;5070625;28;21125;-82
2023/09/17 03:37:26;;;;;;;54.42;35.17;;;20.10;67.70;;;;;;5068028;28;20285;-83
2023/09/17 03:40:12;;;;;;;54.57;38.77;;;20.20;67.00;;;;;;5071003;28;20628;-83
2023/09/17 03:42:39;;;;;;;51.17;35.87;;;20.20;59.60;;;;;;5071110;28;20714;-83
2023/09/17 03:45:06;;;;;;;46.67;34.30;;;20.20;56.00;;;;;;5070641;28;20447;-81
2023/09/17 03:47:34;;;;;;;63.20;36.93;;;20.20;57.60;;;;;;5073372;28;20522;-82
2023/09/17 03:50:00;;;;;;;47.37;35.10;;;20.20;59.00;;;;;;5066468;28;20420;-83
2023/09/17 03:52:29;;;;;;;50.90;36.07;;;20.20;58.20;;;;;;5062257;28;20448;-82
2023/09/17 03:54:55;;;;;;;43.40;34.10;;;20.20;54.10;;;;;;5063435;28;20205;-82
2023/09/17 03:57:21;;;;;;;45.93;34.13;;;20.20;53.50;;;;;;5072030;28;20801;-82
2023/09/17 03:59:47;;;;;;;42.13;31.83;;;20.20;52.10;;;;;;5071841;28;20446;-82
2023/09/17 04:02:13;;;;;;;49.70;34.83;;;20.20;53.20;;;;;;5072254;28;20203;-84
2023/09/17 04:04:39;;;;;;;45.57;31.83;;;20.20;50.20;;;;;;5068057;28;20478;-83
2023/09/17 04:07:04;;;;;;;52.97;37.00;;;20.20;51.40;;;;;;5071326;28;20192;-81
2023/09/17 04:09:30;;;;;;;55.03;36.50;;;20.20;53.40;;;;;;5066304;28;20632;-83
2023/09/17 04:11:57;;;;;;;53.37;35.77;;;20.10;57.40;;;;;;5072363;28;20194;-83
2023/09/17 04:14:23;;;;;;;49.50;35.03;;;20.20;57.20;;;;;;5070685;28;20432;-85
2023/09/17 04:16:48;;;;;;;51.30;35.50;;;20.10;57.20;;;;;;5069404;28;20446;-83
2023/09/17 04:19:15;;;;;;;51.47;36.27;;;20.10;62.40;;;;;;5069246;28;20647;-83
2023/09/17 04:21:41;;;;;;;54.83;35.30;;;20.10;62.10;;;;;;5071672;28;20647;-83
2023/09/17 04:24:07;;;;;;;56.60;37.53;;;20.10;59.30;;;;;;5065861;28;20530;-82
2023/09/17 04:26:32;;;;;;;60.57;38.50;;;20.10;58.80;;;;;;5073272;28;20428;-82
2023/09/17 04:28:58;;;;;;;51.47;36.53;;;20.10;59.80;;;;;;5067152;28;20181;-84
2023/09/17 04:31:24;;;;;;;53.93;36.60;;;20.20;59.80;;;;;;5073572;28;20205;-84
2023/09/17 04:33:51;;;;;;;49.40;35.07;;;20.20;57.40;;;;;;5073887;28;20185;-83
2023/09/17 04:36:16;;;;;;;52.03;36.63;;;20.20;57.10;;;;;;5072078;28;20427;-83
2023/09/17 04:38:42;;;;;;;55.63;39.43;;;20.20;55.80;;;;;;5073935;28;20436;-83
2023/09/17 04:41:07;;;;;;;52.70;37.53;;;20.20;55.80;;;;;;5070081;28;20216;-82
2023/09/17 04:43:33;;;;;;;51.87;35.67;;;20.20;56.30;;;;;;5074620;28;20213;-84
2023/09/17 04:45:59;;;;;;;59.27;37.20;;;20.20;56.40;;;;;;5076514;28;20264;-82
2023/09/17 04:48:25;;;;;;;48.43;35.57;;;20.20;56.50;;;;;;5078359;28;20641;-83
2023/09/17 04:50:50;;;;;;;47.80;33.23;;;20.20;55.70;;;;;;5084016;28;20467;-83
2023/09/17 04:53:16;;;;;;;47.80;35.90;;;20.30;52.80;;;;;;5076248;28;20224;-83
2023/09/17 04:55:42;;;;;;;50.47;36.77;;;20.30;47.90;;;;;;5078990;28;20654;-83
2023/09/17 04:58:07;;;;;;;51.00;37.03;;;20.30;47.00;;;;;;5073416;28;20447;-80
2023/09/17 05:00:34;;;;;;;54.63;36.37;;;20.30;46.80;;;;;;5075306;28;20219;-84
2023/09/17 05:02:59;;;;;;;52.67;35.73;;;20.30;45.40;;;;;;5078540;28;20197;-83
2023/09/17 05:05:25;;;;;;;51.77;35.23;;;20.30;44.60;;;;;;5078040;28;20966;-84
2023/09/17 05:07:50;;;;;;;48.87;34.07;;;20.30;41.70;;;;;;5078214;28;20203;-83
2023/09/17 05:10:16;;;;;;;44.93;33.20;;;20.30;41.20;;;;;;5076897;28;20226;-83
2023/09/17 05:12:43;;;;;;;45.27;34.03;;;20.30;39.50;;;;;;5093634;28;20189;-84
2023/09/17 05:15:10;;;;;;;46.20;33.37;;;20.40;37.50;;;;;;5075736;28;20944;-81
2023/09/17 05:17:35;;;;;;;53.27;34.60;;;20.40;32.90;;;;;;5079328;28;20435;-83
2023/09/17 05:20:00;;;;;;;53.10;37.00;;;20.40;33.00;;;;;;5076239;28;20486;-84
2023/09/17 05:22:26;;;;;;;56.90;35.70;;;20.30;33.50;;;;;;5072404;28;20213;-85
2023/09/17 05:24:56;;;;;;;51.73;38.13;;;20.30;36.80;;;;;;5071705;28;20575;-83
2023/09/17 05:27:21;;;;;;;55.23;39.47;;;20.10;48.00;;;;;;5077669;28;20439;-83
2023/09/17 05:29:47;;;;;;;60.83;40.30;;;20.10;50.60;;;;;;5078742;28;20981;-84
2023/09/17 05:32:12;;;;;;;55.73;38.80;;;20.10;54.90;;;;;;5074910;28;20216;-82
2023/09/17 05:34:38;;;;;;;59.63;39.10;;;20.10;59.10;;;;;;5083677;28;20224;-84
2023/09/17 05:37:03;;;;;;;50.37;36.80;;;20.10;57.50;;;;;;5079612;28;20260;-84
2023/09/17 05:39:29;;;;;;;46.07;35.33;;;20.10;59.00;;;;;;5091697;28;20186;-83
2023/09/17 05:41:55;;;;;;;50.53;36.00;;;20.20;56.30;;;;;;5079327;28;20292;-84
2023/09/17 05:44:20;;;;;;;48.37;36.73;;;20.30;51.60;;;;;;5078948;28;20292;-83
2023/09/17 05:46:46;;;;;;;49.53;35.93;;;20.20;45.70;;;;;;5073361;28;20434;-82
2023/09/17 05:49:11;;;;;;;57.77;36.30;;;20.20;43.00;;;;;;5076850;28;20192;-84
2023/09/17 05:51:37;;;;;;;47.43;34.77;;;20.20;39.20;;;;;;5078524;28;20216;-84
2023/09/17 05:54:02;;;;;;;48.70;34.77;;;20.20;38.00;;;;;;5078424;28;20196;-84
2023/09/17 05:56:28;;;;;;;47.47;33.27;;;20.20;34.40;;;;;;5079300;28;20181;-84
2023/09/17 05:58:53;;;;;;;36.07;31.70;;;20.20;37.10;;;;;;5075392;28;20253;-84
2023/09/17 06:01:19;;;;;;;42.30;31.60;;;20.30;36.20;;;;;;5070578;28;20205;-84
2023/09/17 06:03:44;;;;;;;42.07;30.37;;;20.40;33.40;;;;;;5075450;28;20209;-82
2023/09/17 06:06:10;;;;;;;42.40;29.97;;;20.50;27.90;;;;;;5074728;28;20212;-83
2023/09/17 06:08:36;;;;;;;39.53;29.77;;;20.60;22.20;;;;;;5070489;28;20233;-84
2023/09/17 06:11:01;;;;;;;38.60;30.57;;;20.60;11.40;;;;;;5074640;28;20236;-83
2023/09/17 06:13:27;;;;;;;38.57;29.80;;;20.60;11.00;;;;;;5066861;28;20617;-82
2023/09/17 06:15:53;;;;;;;34.43;27.70;;;20.70;5.40;;;;;;5069148;28;20523;-82
2023/09/17 06:18:18;;;;;;;31.23;27.20;;;20.90;1.00;;;;;;5060301;28;20185;-82
2023/09/17 06:20:44;;;;;;;30.00;25.70;;;21.00;1.00;;;;;;5068968;28;21174;-82
2023/09/17 06:23:12;;;;;;;36.80;26.77;;;21.20;1.00;;;;;;5078696;28;20209;-82
2023/09/17 06:25:38;;;;;;;29.30;24.80;;;21.50;1.00;;;;;;5076175;28;20185;-83
2023/09/17 06:28:04;;;;;;;31.23;23.30;;;21.70;1.00;;;;;;5073694;28;20822;-83
2023/09/17 06:30:29;;;;;;;26.07;22.90;;;21.90;1.00;;;;;;5074610;28;20181;-84
2023/09/17 06:32:55;;;;;;;26.07;23.30;;;22.10;1.00;;;;;;5073199;28;20685;-83
2023/09/17 06:35:20;;;;;;;29.47;23.53;;;22.40;1.00;;;;;;5074483;28;20663;-82
2023/09/17 06:37:46;;;;;;;25.77;21.20;;;22.70;1.00;;;;;;5075324;28;20215;-84
2023/09/17 06:40:14;;;;;;;23.23;20.17;;;24.10;1.00;;;;;;5070349;28;20224;-83
2023/09/17 06:42:39;;;;;;;24.37;18.70;;;24.90;1.00;;;;;;5072515;28;20239;-83
2023/09/17 06:45:06;;;;;;;20.07;17.90;;;25.40;1.00;;;;;;5074081;28;20442;-83
2023/09/17 06:47:31;;;;;;;15.30;13.70;;;26.00;99.90;;;;;;5074802;28;20194;-83
2023/09/17 06:49:57;;;;;;;12.83;11.60;;;29.20;99.90;;;;;;5072812;28;20439;-84
2023/09/17 06:52:23;;;;;;;13.63;11.30;;;32.60;53.90;;;;;;5074611;28;20198;-84
2023/09/17 06:54:49;;;;;;;10.20;8.87;;;36.00;1.00;;;;;;5074659;28;20215;-85
2023/09/17 06:57:15;;;;;;;9.23;8.33;;;38.40;99.90;;;;;;5076134;28;20948;-82
2023/09/17 06:59:40;;;;;;;8.90;7.83;;;40.70;1.00;;;;;;5075947;28;20443;-84
2023/09/17 07:02:06;;;;;;;9.13;7.70;;;42.60;1.00;;;;;;5074715;28;20287;-84
2023/09/17 07:04:31;;;;;;;6.40;5.80;;;43.30;1.00;;;;;;5076662;28;20216;-82
2023/09/17 07:07:00;;;;;;;7.63;5.40;;;44.40;1.00;;;;;;5076112;28;20200;-82
2023/09/17 07:09:27;;;;;;;5.50;4.87;;;45.30;1.00;;;;;;5073550;28;20191;-82
2023/09/17 07:11:52;;;;;;;5.00;4.50;;;46.10;1.00;;;;;;5069013;28;20435;-83
2023/09/17 07:14:18;;;;;;;7.33;5.10;;;46.60;1.00;;;;;;5070486;28;20444;-83
2023/09/17 07:16:44;;;;;;;5.77;4.63;;;47.20;1.00;;;;;;5072785;28;20186;-83
2023/09/17 07:19:09;;;;;;;6.80;4.30;;;47.60;1.00;;;;;;5074822;28;20189;-82
2023/09/17 07:21:35;;;;;;;6.10;4.70;;;47.80;1.00;;;;;;5074097;28;20208;-82
2023/09/17 07:24:00;;;;;;;5.07;3.93;;;48.50;1.00;;;;;;5074756;28;20212;-83
2023/09/17 07:26:26;;;;;;;3.77;3.10;;;48.80;1.00;;;;;;5075751;28;20196;-82
2023/09/17 07:28:51;;;;;;;4.40;4.00;;;48.90;1.00;;;;;;5072756;28;20185;-82
2023/09/17 07:31:25;;;;;;;4.27;2.93;;;49.20;1.00;;;;;;5072343;22;20594;-82
2023/09/17 07:33:51;;;;;;;5.20;3.43;;;49.90;1.00;;;;;;5053773;28;20209;-83
2023/09/17 07:36:16;;;;;;;4.50;3.60;;;50.30;99.90;;;;;;5053895;28;20944;-82
2023/09/17 07:38:42;;;;;;;4.37;3.03;;;50.30;99.90;;;;;;5055822;28;20199;-83
2023/09/17 07:41:08;;;;;;;4.37;3.83;;;50.50;99.90;;;;;;5052563;28;20247;-83
2023/09/17 07:43:33;;;;;;;3.33;2.83;;;50.80;99.90;;;;;;5054531;28;20193;-82
2023/09/17 07:45:58;;;;;;;3.00;2.77;;;51.20;99.90;;;;;;5055432;28;20217;-84
2023/09/17 07:48:25;;;;;;;5.47;3.23;;;51.40;99.90;;;;;;5052586;28;20185;-84
2023/09/17 07:51:00;;;;;;;6.70;2.87;;;51.30;99.90;;;;;;5051953;28;20723;-83
2023/09/17 07:53:26;;;;;;;7.50;2.90;;;51.30;99.90;;;;;;5048183;28;20199;-84
2023/09/17 07:55:52;;;;;;;4.30;2.90;;;51.70;99.90;;;;;;5050576;28;20177;-83
2023/09/17 07:58:18;;;;;;;4.20;2.60;;;51.80;99.90;;;;;;5040631;28;20565;-84
2023/09/17 08:00:45;;;;;;;3.77;2.80;;;51.80;99.90;;;;;;5039356;28;20208;-83
2023/09/17 08:03:16;;;;;;;3.23;2.70;;;51.70;99.90;;;;;;5050280;28;21047;-83
2023/09/17 08:05:45;;;;;;;3.63;2.70;;;51.90;99.90;;;;;;5052030;28;20213;-84
2023/09/17 08:08:10;;;;;;;4.70;2.97;;;51.80;99.90;;;;;;5052070;28;20192;-83
2023/09/17 08:10:36;;;;;;;5.23;2.40;;;51.90;99.90;;;;;;5051423;28;20697;-83
2023/09/17 08:13:02;;;;;;;2.83;2.40;;;52.20;99.90;;;;;;5051221;28;20200;-84
2023/09/17 08:15:29;;;;;;;4.03;2.60;;;52.50;99.90;;;;;;5050844;28;20181;-83
2023/09/17 08:17:58;;;;;;;3.50;2.50;;;52.60;99.90;;;;;;5053064;28;20178;-83
2023/09/17 08:20:24;;;;;;;3.53;2.67;;;52.60;99.90;;;;;;5051946;28;20174;-83
2023/09/17 08:22:52;;;;;;;2.87;2.67;;;52.40;99.90;;;;;;5050481;28;20220;-83
2023/09/17 08:25:18;;;;;;;3.63;2.63;;;52.30;99.90;;;;;;5050240;28;20177;-83
2023/09/17 08:27:45;;;;;;;3.17;2.60;;;52.20;99.90;;;;;;5051984;28;20186;-84
2023/09/17 08:30:12;;;;;;;2.60;2.27;;;51.80;99.90;;;;;;5051041;28;20205;-83
2023/09/17 08:32:43;;;;;;;2.80;2.50;;;50.70;99.90;;;;;;5052900;28;20216;-84
2023/09/17 08:35:09;;;;;;;3.63;2.43;;;50.10;99.90;;;;;;5053371;28;20539;-83
2023/09/17 08:37:36;;;;;;;3.50;2.70;;;50.80;99.90;;;;;;5048656;28;20483;-82
2023/09/17 08:40:05;;;;;;;2.90;2.50;;;51.40;99.90;;;;;;5050494;28;20534;-83
2023/09/17 08:42:31;;;;;;;2.63;2.43;;;51.20;99.90;;;;;;5051798;28;20209;-84
2023/09/17 08:44:59;;;;;;;3.03;2.73;;;51.70;99.90;;;;;;5047211;28;20184;-83
2023/09/17 08:47:24;;;;;;;5.00;2.20;;;51.40;99.90;;;;;;5051737;28;20208;-83
2023/09/17 08:49:50;;;;;;;6.73;2.20;;;49.90;99.90;;;;;;5050673;28;20439;-81
2023/09/17 08:52:17;;;;;;;4.73;2.30;;;48.90;99.90;;;;;;5054006;28;20206;-83
2023/09/17 08:54:44;;;;;;;4.23;3.03;;;48.30;99.90;;;;;;5052763;28;21079;-84
2023/09/17 08:57:13;;;;;;;2.83;2.40;;;48.70;99.90;;;;;;5054402;28;20443;-83
2023/09/17 08:59:43;;;;;;;4.90;2.37;;;49.00;99.90;;;;;;5054000;28;20470;-83
2023/09/17 09:02:24;;;;;;;5.77;2.57;;;49.50;99.90;;;;;;5049171;28;20456;-83
2023/09/17 09:04:51;;;;;;;2.47;2.27;;;49.90;99.90;;;;;;5048959;28;20475;-84
2023/09/17 09:07:20;;;;;;;2.53;2.20;;;50.20;99.90;;;;;;5050504;28;20435;-84
2023/09/17 09:09:48;;;;;;;2.23;2.00;;;50.40;99.90;;;;;;5035017;28;20505;-84
2023/09/17 09:12:15;;;;;;;3.13;2.23;;;50.50;99.90;;;;;;5045875;28;20277;-84
2023/09/17 09:14:44;;;;;;;4.93;2.20;;;50.50;99.90;;;;;;5048716;28;20177;-84
2023/09/17 09:17:10;;;;;;;2.67;2.40;;;50.70;99.90;;;;;;5047767;28;20184;-84
2023/09/17 09:19:36;;;;;;;3.07;2.03;;;50.70;99.90;;;;;;5049778;28;20747;-84
2023/09/17 09:22:02;;;;;;;2.70;2.00;;;50.80;99.90;;;;;;5048169;28;20209;-83
2023/09/17 09:24:47;;;;;;;2.90;2.37;;;50.50;99.90;;;;;;5050099;28;20205;-84
2023/09/17 09:27:13;;;;;;;3.23;2.53;;;50.50;99.90;;;;;;5048800;28;20190;-84
2023/09/17 09:29:42;;;;;;;2.07;1.97;;;50.60;99.90;;;;;;5045214;28;20309;-84
2023/09/17 09:32:09;;;;;;;2.37;1.90;;;51.00;99.90;;;;;;5048692;28;20205;-81
2023/09/17 09:34:46;;;;;;;5.80;2.70;;;51.00;99.90;;;;;;5053065;28;20245;-82
2023/09/17 09:37:12;;;;;;;2.10;1.90;;;51.00;99.90;;;;;;5055811;28;20193;-84
2023/09/17 09:39:38;;;;;;;2.27;2.07;;;51.00;99.90;;;;;;5056086;28;20243;-81
2023/09/17 09:42:05;;;;;;;2.87;2.50;;;50.50;99.90;;;;;;5052908;28;20300;-84
2023/09/17 09:44:31;;;;;;;2.63;2.17;;;50.40;99.90;;;;;;5055563;28;20459;-83
2023/09/17 09:46:58;;;;;;;3.23;2.17;;;50.40;99.90;;;;;;5054996;28;20455;-83
2023/09/17 09:49:24;;;;;;;3.63;1.90;;;50.10;99.90;;;;;;5055483;28;20456;-83
2023/09/17 09:51:51;;;;;;;1.93;1.70;;;50.20;99.90;;;;;;5054443;28;20451;-83
2023/09/17 09:54:17;;;;;;;3.10;2.50;;;50.30;99.90;;;;;;5054405;28;20185;-83
2023/09/17 09:56:42;;;;;;;2.53;1.73;;;50.80;99.90;;;;;;5055065;28;20501;-83
2023/09/17 09:59:08;;;;;;;3.23;1.70;;;50.90;99.90;;;;;;5054052;28;20216;-81
2023/09/17 10:01:37;;;;;;;3.10;2.10;;;51.30;99.90;;;;;;5053622;28;20753;-83
2023/09/17 10:04:06;;;;;;;2.00;1.90;;;49.30;99.90;;;;;;5055404;28;20225;-83
2023/09/17 10:06:34;;;;;;;3.07;2.00;;;49.30;99.90;;;;;;5049988;28;20522;-83
2023/09/17 10:09:00;;;;;;;3.23;2.07;;;49.90;99.90;;;;;;5054799;28;20443;-83
2023/09/17 10:11:26;;;;;;;2.17;1.80;;;50.20;99.90;;;;;;5053906;28;20832;-83
2023/09/17 10:13:53;;;;;;;4.63;2.00;;;50.50;99.90;;;;;;5054604;28;20207;-82
2023/09/17 10:16:19;;;;;;;2.83;1.80;;;49.70;99.90;;;;;;5057778;28;20506;-82
2023/09/17 10:18:45;;;;;;;4.77;2.20;;;49.90;99.90;;;;;;5052139;28;20740;-82
2023/09/17 10:21:14;;;;;;;3.57;2.10;;;47.50;99.90;;;;;;5052863;28;20470;-82
2023/09/17 10:23:40;;;;;;;3.07;2.20;;;46.70;99.90;;;;;;5052078;28;20202;-83
2023/09/17 10:26:07;;;;;;;3.07;2.73;;;46.20;99.90;;;;;;5054354;28;20468;-83
2023/09/17 10:28:34;;;;;;;3.00;2.63;;;46.10;99.90;;;;;;5049232;28;20429;-82
2023/09/17 10:31:01;;;;;;;2.93;2.33;;;44.10;99.90;;;;;;5054715;28;20463;-83
2023/09/17 10:33:29;;;;;;;2.70;2.27;;;44.90;99.90;;;;;;5052755;28;20459;-82
2023/09/17 10:35:57;;;;;;;2.90;2.23;;;44.90;99.90;;;;;;5052673;28;20440;-81
2023/09/17 10:38:24;;;;;;;2.53;2.33;;;45.30;99.90;;;;;;5053381;28;20432;-83
2023/09/17 10:40:50;;;;;;;2.80;2.60;;;45.80;99.90;;;;;;5052878;28;20533;-82
2023/09/17 10:43:18;;;;;;;3.00;2.70;;;44.80;99.90;;;;;;5053688;28;20468;-82
2023/09/17 10:45:45;;;;;;;3.03;2.63;;;45.60;99.90;;;;;;5052934;28;20236;-82
2023/09/17 10:48:12;;;;;;;5.13;3.30;;;46.10;99.90;;;;;;5056716;28;20953;-82
2023/09/17 10:50:39;;;;;;;4.00;2.80;;;46.10;99.90;;;;;;5050623;28;20459;-82
2023/09/17 10:53:06;;;;;;;3.40;3.10;;;45.70;99.90;;;;;;5052740;28;20815;-82
2023/09/17 10:55:36;;;;;;;3.10;2.80;;;44.30;99.90;;;;;;5053612;28;20523;-82
2023/09/17 10:58:24;;;;;;;4.70;2.87;;;43.00;99.90;;;;;;5053665;28;20437;-82
2023/09/17 11:00:51;;;;;;;4.03;3.00;;;43.90;99.90;;;;;;5051975;28;21215;-83
2023/09/17 11:03:19;;;;;;;3.80;3.10;;;44.50;99.90;;;;;;5051590;28;20499;-82
2023/09/17 11:05:51;;;;;;;4.37;3.53;;;44.20;99.90;;;;;;5055765;28;20457;-83
2023/09/17 11:08:17;;;;;;;4.00;3.30;;;44.30;99.90;;;;;;5068180;28;20506;-82
2023/09/17 11:10:43;;;;;;;3.93;3.07;;;44.30;99.90;;;;;;5051545;28;20953;-81
2023/09/17 11:13:12;;;;;;;4.57;2.90;;;44.30;99.90;;;;;;5053325;28;20182;-83
2023/09/17 11:15:39;;;;;;;4.57;2.77;;;44.50;99.90;;;;;;5042283;28;20178;-83
2023/09/17 11:18:07;;;;;;;5.43;2.83;;;44.80;99.90;;;;;;5056473;28;20455;-82
2023/09/17 11:20:33;;;;;;;3.10;2.87;;;44.00;99.90;;;;;;5051147;28;20445;-82
2023/09/17 11:23:00;;;;;;;6.60;2.97;;;42.80;99.90;;;;;;5055651;28;20456;-81
2023/09/17 11:25:34;;;;;;;4.07;3.67;;;42.50;99.90;;;;;;5057102;28;20549;-82
2023/09/17 11:28:11;;;;;;;3.30;3.00;;;42.50;99.90;;;;;;5057181;28;20503;-82
2023/09/17 11:30:57;;;;;;;4.93;3.00;;;43.20;99.90;;;;;;5057625;28;20428;-83
2023/09/17 11:33:23;;;;;;;2.93;2.73;;;44.10;99.90;;;;;;5057444;28;20440;-83
2023/09/17 11:35:49;;;;;;;5.60;4.00;;;44.50;99.90;;;;;;5057926;28;20412;-83
2023/09/17 11:38:15;;;;;;;3.83;2.90;;;44.90;99.90;;;;;;5058286;28;20412;-83
2023/09/17 11:40:43;;;;;;;3.53;2.43;;;44.60;99.90;;;;;;5056552;28;20750;-83
2023/09/17 11:43:08;;;;;;;5.27;2.63;;;44.60;99.90;;;;;;5057562;28;20232;-83
2023/09/17 11:45:34;;;;;;;3.40;2.60;;;45.00;99.90;;;;;;5057535;28;20436;-82
2023/09/17 11:48:04;;;;;;;4.80;2.60;;;45.30;99.90;;;;;;5061205;28;20189;-81
2023/09/17 11:50:30;;;;;;;2.93;2.50;;;43.90;99.90;;;;;;5053977;28;20182;-80
2023/09/17 11:53:05;;;;;;;3.13;2.83;;;43.10;99.90;;;;;;5056222;28;20974;-84
2023/09/17 11:55:32;;;;;;;5.13;3.27;;;42.90;99.90;;;;;;5057196;28;20193;-81
2023/09/17 11:58:18;;;;;;;2.90;2.40;;;42.70;99.90;;;;;;5056130;28;20885;-83
2023/09/17 12:00:45;;;;;;;3.20;2.70;;;42.50;99.90;;;;;;5056925;28;20447;-83
2023/09/17 12:03:12;;;;;;;2.70;2.30;;;42.10;99.90;;;;;;5056343;28;20558;-83
2023/09/17 12:05:39;;;;;;;2.70;2.00;;;41.80;99.90;;;;;;5052192;28;20429;-83
2023/09/17 12:08:06;;;;;;;2.50;2.30;;;41.10;99.90;;;;;;5053530;28;20451;-83
2023/09/17 12:10:49;;;;;;;3.97;2.63;;;41.10;99.90;;;;;;5054752;28;20429;-81
2023/09/17 12:13:15;;;;;;;3.07;2.40;;;40.60;99.90;;;;;;5054556;28;20598;-83
2023/09/17 12:15:41;;;;;;;2.90;2.63;;;39.80;99.90;;;;;;5052922;28;20969;-82
2023/09/17 12:18:08;;;;;;;2.80;2.40;;;38.80;99.90;;;;;;5054531;28;20208;-83
2023/09/17 12:20:59;;;;;;;3.20;2.90;;;38.70;99.90;;;;;;5053540;28;20531;-82
2023/09/17 12:29:38;;;;;;;2.70;2.07;;;39.10;99.90;;;;;;5054942;28;20956;-82
2023/09/17 12:32:05;;;;;;;6.20;2.47;;;38.70;99.90;;;;;;5054682;28;20476;-83
2023/09/17 12:34:33;;;;;;;2.70;2.30;;;38.70;99.90;;;;;;5052936;28;20575;-83
2023/09/17 12:36:59;;;;;;;2.50;2.30;;;38.80;99.90;;;;;;5054960;28;20413;-83
2023/09/17 12:39:24;;;;;;;3.77;2.53;;;38.80;99.90;;;;;;5051071;28;20455;-82
2023/09/17 12:41:50;;;;;;;7.10;2.60;;;38.60;99.90;;;;;;5055148;28;20667;-82
2023/09/17 12:44:17;;;;;;;2.73;2.30;;;38.10;99.90;;;;;;5055036;28;20213;-83